sensor_id;sensor_type;location;lat;lon;timestamp;pressure;altitude;pressure_sealevel;temperature;humidity
4133;BME280;2080;51.038;7.008;2023-04-07T00:01:12;76056.19;;;-142.53;100.00
4133;BME280;2080;51.038;7.008;2023-04-07T00:03:40;76044.56;;;-142.53;100.00
4133;BME280;2080;51.038;7.008;2023-04-07T00:06:06;76036.78;;;-142.53;100.00
4133;BME280;2080;51.038;7.008;2023-04-07T00:08:34;76048.44;;;-142.53;100.00
4133;BME280;2080;51.038;7.008;2023-04-07T00:11:00;76052.31;;;-142.53;100.00
4133;BME280;2080;51.038;7.008;2023-04-07T00:13:25;76029.00;;;-142.53;100.00
4133;BME280;2080;51.038;7.008;2023-04-07T00:15:51;76040.66;;;-142.53;100.00
4133;BME280;2080;51.038;7.008;2023-04-07T00:18:16;76044.56;;;-142.53;100.00
4133;BME280;2080;51.038;7.008;2023-04-07T00:20:44;76040.66;;;-142.53;100.00
4133;BME280;2080;51.038;7.008;2023-04-07T00:23:09;76036.78;;;-142.53;100.00
4133;BME280;2080;51.038;7.008;2023-04-07T00:25:34;76044.56;;;-142.53;100.00
4133;BME280;2080;51.038;7.008;2023-04-07T00:28:00;76044.56;;;-142.53;100.00
4133;BME280;2080;51.038;7.008;2023-04-07T00:30:25;76044.56;;;-142.53;100.00
4133;BME280;2080;51.038;7.008;2023-04-07T00:32:51;76025.13;;;-142.53;100.00
4133;BME280;2080;51.038;7.008;2023-04-07T00:35:16;76025.13;;;-142.53;100.00
4133;BME280;2080;51.038;7.008;2023-04-07T00:37:44;76017.34;;;-142.53;100.00
4133;BME280;2080;51.038;7.008;2023-04-07T00:40:09;76029.00;;;-142.53;100.00
4133;BME280;2080;51.038;7.008;2023-04-07T00:42:40;76036.78;;;-142.53;100.00
4133;BME280;2080;51.038;7.008;2023-04-07T00:45:08;76036.78;;;-142.53;100.00
4133;BME280;2080;51.038;7.008;2023-04-07T00:47:35;76029.00;;;-142.53;100.00
4133;BME280;2080;51.038;7.008;2023-04-07T00:50:03;76017.34;;;-142.53;100.00
4133;BME280;2080;51.038;7.008;2023-04-07T00:52:28;76013.47;;;-142.53;100.00
4133;BME280;2080;51.038;7.008;2023-04-07T00:54:56;76001.81;;;-142.53;100.00
4133;BME280;2080;51.038;7.008;2023-04-07T00:57:24;76005.72;;;-142.53;100.00
4133;BME280;2080;51.038;7.008;2023-04-07T00:59:53;76005.72;;;-142.53;100.00
4133;BME280;2080;51.038;7.008;2023-04-07T01:02:33;76009.59;;;-142.53;100.00
4133;BME280;2080;51.038;7.008;2023-04-07T01:10:13;75990.16;;;-142.53;100.00
4133;BME280;2080;51.038;7.008;2023-04-07T01:13:09;75994.06;;;-142.53;100.00
4133;BME280;2080;51.038;7.008;2023-04-07T01:15:37;75990.16;;;-142.53;100.00
4133;BME280;2080;51.038;7.008;2023-04-07T01:18:16;75988.22;;;-142.53;100.00
4133;BME280;2080;51.038;7.008;2023-04-07T01:20:45;76007.66;;;-142.53;100.00
4133;BME280;2080;51.038;7.008;2023-04-07T01:23:22;76001.81;;;-142.53;100.00
4133;BME280;2080;51.038;7.008;2023-04-07T01:26:10;76013.47;;;-142.53;100.00
4133;BME280;2080;51.038;7.008;2023-04-07T01:31:28;76044.56;;;-142.53;100.00
4133;BME280;2080;51.038;7.008;2023-04-07T01:33:55;76046.50;;;-142.53;100.00
4133;BME280;2080;51.038;7.008;2023-04-07T01:36:25;76005.72;;;-142.53;100.00
4133;BME280;2080;51.038;7.008;2023-04-07T01:38:55;76021.25;;;-142.53;100.00
4133;BME280;2080;51.038;7.008;2023-04-07T01:41:22;75997.94;;;-142.53;100.00
4133;BME280;2080;51.038;7.008;2023-04-07T01:43:51;76009.59;;;-142.53;100.00
4133;BME280;2080;51.038;7.008;2023-04-07T01:46:19;75997.94;;;-142.53;100.00
4133;BME280;2080;51.038;7.008;2023-04-07T01:48:46;75994.06;;;-142.53;100.00
4133;BME280;2080;51.038;7.008;2023-04-07T01:51:15;75986.28;;;-142.53;100.00
4133;BME280;2080;51.038;7.008;2023-04-07T01:53:44;75978.50;;;-142.53;100.00
4133;BME280;2080;51.038;7.008;2023-04-07T01:56:15;75970.75;;;-142.53;100.00
4133;BME280;2080;51.038;7.008;2023-04-07T01:58:40;75966.88;;;-142.53;100.00
4133;BME280;2080;51.038;7.008;2023-04-07T02:01:06;75959.09;;;-142.53;100.00
4133;BME280;2080;51.038;7.008;2023-04-07T02:03:51;75959.09;;;-142.53;100.00
4133;BME280;2080;51.038;7.008;2023-04-07T02:06:21;75953.28;;;-142.53;100.00
4133;BME280;2080;51.038;7.008;2023-04-07T02:08:51;75953.28;;;-142.53;100.00
4133;BME280;2080;51.038;7.008;2023-04-07T02:11:22;75966.88;;;-142.53;100.00
4133;BME280;2080;51.038;7.008;2023-04-07T02:13:51;75941.63;;;-142.53;100.00
4133;BME280;2080;51.038;7.008;2023-04-07T02:16:19;75943.56;;;-142.53;100.00
4133;BME280;2080;51.038;7.008;2023-04-07T02:18:47;75953.28;;;-142.53;100.00
4133;BME280;2080;51.038;7.008;2023-04-07T02:21:14;75939.69;;;-142.53;100.00
4133;BME280;2080;51.038;7.008;2023-04-07T02:23:40;75953.28;;;-142.53;100.00
4133;BME280;2080;51.038;7.008;2023-04-07T02:26:05;75962.97;;;-142.53;100.00
4133;BME280;2080;51.038;7.008;2023-04-07T02:28:33;75962.97;;;-142.53;100.00
4133;BME280;2080;51.038;7.008;2023-04-07T02:31:00;75961.03;;;-142.53;100.00
4133;BME280;2080;51.038;7.008;2023-04-07T02:33:25;75955.22;;;-142.53;100.00
4133;BME280;2080;51.038;7.008;2023-04-07T02:35:53;75955.22;;;-142.53;100.00
4133;BME280;2080;51.038;7.008;2023-04-07T02:38:18;75970.75;;;-142.53;100.00
4133;BME280;2080;51.038;7.008;2023-04-07T02:40:46;75947.44;;;-142.53;100.00
4133;BME280;2080;51.038;7.008;2023-04-07T02:43:14;75941.63;;;-142.53;100.00
4133;BME280;2080;51.038;7.008;2023-04-07T02:45:39;75935.78;;;-142.53;100.00
4133;BME280;2080;51.038;7.008;2023-04-07T02:48:05;75939.69;;;-142.53;100.00
4133;BME280;2080;51.038;7.008;2023-04-07T02:50:32;75955.22;;;-142.53;100.00
4133;BME280;2080;51.038;7.008;2023-04-07T02:52:57;75937.72;;;-142.53;100.00
4133;BME280;2080;51.038;7.008;2023-04-07T02:55:27;75939.69;;;-142.53;100.00
4133;BME280;2080;51.038;7.008;2023-04-07T02:57:55;75931.91;;;-142.53;100.00
4133;BME280;2080;51.038;7.008;2023-04-07T03:00:23;75943.56;;;-142.53;100.00
4133;BME280;2080;51.038;7.008;2023-04-07T03:02:49;75935.78;;;-142.53;100.00
4133;BME280;2080;51.038;7.008;2023-04-07T03:05:17;75937.72;;;-142.53;100.00
4133;BME280;2080;51.038;7.008;2023-04-07T03:07:44;75928.03;;;-142.53;100.00
4133;BME280;2080;51.038;7.008;2023-04-07T03:10:10;75955.22;;;-142.53;100.00
4133;BME280;2080;51.038;7.008;2023-04-07T03:12:38;75943.56;;;-142.53;100.00
4133;BME280;2080;51.038;7.008;2023-04-07T03:15:03;75943.56;;;-142.53;100.00
4133;BME280;2080;51.038;7.008;2023-04-07T03:17:28;75924.13;;;-142.53;100.00
4133;BME280;2080;51.038;7.008;2023-04-07T03:19:54;75931.91;;;-142.53;100.00
4133;BME280;2080;51.038;7.008;2023-04-07T03:22:21;75933.84;;;-142.53;100.00
4133;BME280;2080;51.038;7.008;2023-04-07T03:24:47;75922.19;;;-142.53;100.00
4133;BME280;2080;51.038;7.008;2023-04-07T03:27:15;75929.97;;;-142.53;100.00
4133;BME280;2080;51.038;7.008;2023-04-07T03:29:41;75945.50;;;-142.53;100.00
4133;BME280;2080;51.038;7.008;2023-04-07T03:32:09;75955.22;;;-142.53;100.00
4133;BME280;2080;51.038;7.008;2023-04-07T03:34:39;75964.91;;;-142.53;100.00
4133;BME280;2080;51.038;7.008;2023-04-07T03:37:05;75943.56;;;-142.53;100.00
4133;BME280;2080;51.038;7.008;2023-04-07T03:39:32;75964.91;;;-142.53;100.00
4133;BME280;2080;51.038;7.008;2023-04-07T03:42:02;75955.22;;;-142.53;100.00
4133;BME280;2080;51.038;7.008;2023-04-07T03:44:30;75951.31;;;-142.53;100.00
4133;BME280;2080;51.038;7.008;2023-04-07T03:46:56;75959.09;;;-142.53;100.00
4133;BME280;2080;51.038;7.008;2023-04-07T03:49:22;75949.38;;;-142.53;100.00
4133;BME280;2080;51.038;7.008;2023-04-07T03:51:52;75955.22;;;-142.53;100.00
4133;BME280;2080;51.038;7.008;2023-04-07T03:54:17;75961.03;;;-142.53;100.00
4133;BME280;2080;51.038;7.008;2023-04-07T03:56:43;75966.88;;;-142.53;100.00
4133;BME280;2080;51.038;7.008;2023-04-07T03:59:10;75974.63;;;-142.53;100.00
4133;BME280;2080;51.038;7.008;2023-04-07T04:01:36;75951.31;;;-142.53;100.00
4133;BME280;2080;51.038;7.008;2023-04-07T04:04:01;75976.56;;;-142.53;100.00
4133;BME280;2080;51.038;7.008;2023-04-07T04:06:31;75970.75;;;-142.53;100.00
4133;BME280;2080;51.038;7.008;2023-04-07T04:08:56;76005.72;;;-142.53;100.00
4133;BME280;2080;51.038;7.008;2023-04-07T04:11:27;76001.81;;;-142.53;100.00
4133;BME280;2080;51.038;7.008;2023-04-07T04:13:54;75988.22;;;-142.53;100.00
4133;BME280;2080;51.038;7.008;2023-04-07T04:16:20;76003.75;;;-142.53;100.00
4133;BME280;2080;51.038;7.008;2023-04-07T04:18:45;76007.66;;;-142.53;100.00
4133;BME280;2080;51.038;7.008;2023-04-07T04:21:10;75982.41;;;-142.53;100.00
4133;BME280;2080;51.038;7.008;2023-04-07T04:23:36;75997.94;;;-142.53;100.00
4133;BME280;2080;51.038;7.008;2023-04-07T04:26:04;75982.41;;;-142.53;100.00
4133;BME280;2080;51.038;7.008;2023-04-07T04:28:29;76007.66;;;-142.53;100.00
4133;BME280;2080;51.038;7.008;2023-04-07T04:30:55;76025.13;;;-142.53;100.00
4133;BME280;2080;51.038;7.008;2023-04-07T04:33:20;76017.34;;;-142.53;100.00
4133;BME280;2080;51.038;7.008;2023-04-07T04:35:46;76029.00;;;-142.53;100.00
4133;BME280;2080;51.038;7.008;2023-04-07T04:38:11;76019.31;;;-142.53;100.00
4133;BME280;2080;51.038;7.008;2023-04-07T04:40:36;76001.81;;;-142.53;100.00
4133;BME280;2080;51.038;7.008;2023-04-07T04:43:02;75997.94;;;-142.53;100.00
4133;BME280;2080;51.038;7.008;2023-04-07T04:45:31;76017.34;;;-142.53;100.00
4133;BME280;2080;51.038;7.008;2023-04-07T04:47:57;76025.13;;;-142.53;100.00
4133;BME280;2080;51.038;7.008;2023-04-07T04:50:22;76029.00;;;-142.53;100.00
4133;BME280;2080;51.038;7.008;2023-04-07T04:52:47;76029.00;;;-142.53;100.00
4133;BME280;2080;51.038;7.008;2023-04-07T04:55:15;76013.47;;;-142.53;100.00
4133;BME280;2080;51.038;7.008;2023-04-07T04:57:40;76025.13;;;-142.53;100.00
4133;BME280;2080;51.038;7.008;2023-04-07T05:00:08;76029.00;;;-142.53;100.00
4133;BME280;2080;51.038;7.008;2023-04-07T05:02:36;76040.66;;;-142.53;100.00
4133;BME280;2080;51.038;7.008;2023-04-07T05:05:02;76032.91;;;-142.53;100.00
4133;BME280;2080;51.038;7.008;2023-04-07T05:07:27;76032.91;;;-142.53;100.00
4133;BME280;2080;51.038;7.008;2023-04-07T05:09:55;76032.91;;;-142.53;100.00
4133;BME280;2080;51.038;7.008;2023-04-07T05:12:21;76036.78;;;-142.53;100.00
4133;BME280;2080;51.038;7.008;2023-04-07T05:14:46;76023.19;;;-142.53;100.00
4133;BME280;2080;51.038;7.008;2023-04-07T05:17:11;76040.66;;;-142.53;100.00
4133;BME280;2080;51.038;7.008;2023-04-07T05:19:37;76069.78;;;-142.53;100.00
4133;BME280;2080;51.038;7.008;2023-04-07T05:22:02;76048.44;;;-142.53;100.00
4133;BME280;2080;51.038;7.008;2023-04-07T05:24:28;76067.84;;;-142.53;100.00
4133;BME280;2080;51.038;7.008;2023-04-07T05:26:54;76036.78;;;-142.53;100.00
4133;BME280;2080;51.038;7.008;2023-04-07T05:29:22;76069.78;;;-142.53;100.00
4133;BME280;2080;51.038;7.008;2023-04-07T05:31:50;76091.16;;;-142.53;100.00
4133;BME280;2080;51.038;7.008;2023-04-07T05:34:15;76071.75;;;-142.53;100.00
4133;BME280;2080;51.038;7.008;2023-04-07T05:36:41;76071.75;;;-142.53;100.00
4133;BME280;2080;51.038;7.008;2023-04-07T05:39:08;76071.75;;;-142.53;100.00
4133;BME280;2080;51.038;7.008;2023-04-07T05:41:33;76073.69;;;-142.53;100.00
4133;BME280;2080;51.038;7.008;2023-04-07T05:44:01;76118.34;;;-142.53;100.00
4133;BME280;2080;51.038;7.008;2023-04-07T05:46:26;76116.41;;;-142.53;100.00
4133;BME280;2080;51.038;7.008;2023-04-07T05:48:53;76108.63;;;-142.53;100.00
4133;BME280;2080;51.038;7.008;2023-04-07T05:51:18;76114.47;;;-142.53;100.00
4133;BME280;2080;51.038;7.008;2023-04-07T05:53:46;76114.47;;;-142.53;100.00
4133;BME280;2080;51.038;7.008;2023-04-07T05:56:14;76133.88;;;-142.53;100.00
4133;BME280;2080;51.038;7.008;2023-04-07T05:58:42;76118.34;;;-142.53;100.00
4133;BME280;2080;51.038;7.008;2023-04-07T06:01:10;76149.44;;;-142.53;100.00
4133;BME280;2080;51.038;7.008;2023-04-07T06:03:38;76126.13;;;-142.53;100.00
4133;BME280;2080;51.038;7.008;2023-04-07T06:06:09;76108.63;;;-142.53;100.00
4133;BME280;2080;51.038;7.008;2023-04-07T06:08:34;76108.63;;;-142.53;100.00
4133;BME280;2080;51.038;7.008;2023-04-07T06:11:00;76110.59;;;-142.53;100.00
4133;BME280;2080;51.038;7.008;2023-04-07T06:13:25;76116.41;;;-142.53;100.00
4133;BME280;2080;51.038;7.008;2023-04-07T06:15:53;76124.19;;;-142.53;100.00
4133;BME280;2080;51.038;7.008;2023-04-07T06:18:19;76095.03;;;-142.53;100.00
4133;BME280;2080;51.038;7.008;2023-04-07T06:20:46;76110.59;;;-142.53;100.00
4133;BME280;2080;51.038;7.008;2023-04-07T06:23:12;76110.59;;;-142.53;100.00
4133;BME280;2080;51.038;7.008;2023-04-07T06:25:37;76118.34;;;-142.53;100.00
4133;BME280;2080;51.038;7.008;2023-04-07T06:28:03;76126.13;;;-142.53;100.00
4133;BME280;2080;51.038;7.008;2023-04-07T06:30:28;76145.53;;;-142.53;100.00
4133;BME280;2080;51.038;7.008;2023-04-07T06:32:56;76124.19;;;-142.53;100.00
4133;BME280;2080;51.038;7.008;2023-04-07T06:35:21;76137.78;;;-142.53;100.00
4133;BME280;2080;51.038;7.008;2023-04-07T06:37:51;76114.47;;;-142.53;100.00
4133;BME280;2080;51.038;7.008;2023-04-07T06:40:16;76098.94;;;-142.53;100.00
4133;BME280;2080;51.038;7.008;2023-04-07T06:42:41;76098.94;;;-142.53;100.00
4133;BME280;2080;51.038;7.008;2023-04-07T06:45:07;76130.00;;;-142.53;100.00
4133;BME280;2080;51.038;7.008;2023-04-07T06:47:33;76130.00;;;-142.53;100.00
4133;BME280;2080;51.038;7.008;2023-04-07T06:49:58;76145.53;;;-142.53;100.00
4133;BME280;2080;51.038;7.008;2023-04-07T06:52:26;76145.53;;;-142.53;100.00
4133;BME280;2080;51.038;7.008;2023-04-07T06:54:51;76135.84;;;-142.53;100.00
4133;BME280;2080;51.038;7.008;2023-04-07T06:57:19;76130.00;;;-142.53;100.00
4133;BME280;2080;51.038;7.008;2023-04-07T06:59:47;76157.19;;;-142.53;100.00
4133;BME280;2080;51.038;7.008;2023-04-07T07:02:14;76133.88;;;-142.53;100.00
4133;BME280;2080;51.038;7.008;2023-04-07T07:04:42;76126.13;;;-142.53;100.00
4133;BME280;2080;51.038;7.008;2023-04-07T07:07:07;76116.41;;;-142.53;100.00
4133;BME280;2080;51.038;7.008;2023-04-07T07:09:33;76118.34;;;-142.53;100.00
4133;BME280;2080;51.038;7.008;2023-04-07T07:11:58;76130.00;;;-142.53;100.00
4133;BME280;2080;51.038;7.008;2023-04-07T07:14:26;76161.09;;;-142.53;100.00
4133;BME280;2080;51.038;7.008;2023-04-07T07:16:51;76133.88;;;-142.53;100.00
4133;BME280;2080;51.038;7.008;2023-04-07T07:19:16;76126.13;;;-142.53;100.00
4133;BME280;2080;51.038;7.008;2023-04-07T07:21:42;76130.00;;;-142.53;100.00
4133;BME280;2080;51.038;7.008;2023-04-07T07:24:09;76120.28;;;-142.53;100.00
4133;BME280;2080;51.038;7.008;2023-04-07T07:26:35;76147.47;;;-142.53;100.00
4133;BME280;2080;51.038;7.008;2023-04-07T07:29:00;76141.66;;;-142.53;100.00
4133;BME280;2080;51.038;7.008;2023-04-07T07:31:26;76157.19;;;-142.53;100.00
4133;BME280;2080;51.038;7.008;2023-04-07T07:33:51;76161.09;;;-142.53;100.00
4133;BME280;2080;51.038;7.008;2023-04-07T07:36:19;76133.88;;;-142.53;100.00
4133;BME280;2080;51.038;7.008;2023-04-07T07:38:48;76145.53;;;-142.53;100.00
4133;BME280;2080;51.038;7.008;2023-04-07T07:41:15;76130.00;;;-142.53;100.00
4133;BME280;2080;51.038;7.008;2023-04-07T07:43:43;76110.59;;;-142.53;100.00
4133;BME280;2080;51.038;7.008;2023-04-07T07:46:11;76141.66;;;-142.53;100.00
4133;BME280;2080;51.038;7.008;2023-04-07T07:48:36;76118.34;;;-142.53;100.00
4133;BME280;2080;51.038;7.008;2023-04-07T07:51:02;76120.28;;;-142.53;100.00
4133;BME280;2080;51.038;7.008;2023-04-07T07:53:29;76102.81;;;-142.53;100.00
4133;BME280;2080;51.038;7.008;2023-04-07T07:55:55;76102.81;;;-142.53;100.00
4133;BME280;2080;51.038;7.008;2023-04-07T07:58:23;76104.75;;;-142.53;100.00
4133;BME280;2080;51.038;7.008;2023-04-07T08:00:48;76114.47;;;-142.53;100.00
4133;BME280;2080;51.038;7.008;2023-04-07T08:03:16;76163.03;;;-142.53;100.00
4133;BME280;2080;51.038;7.008;2023-04-07T08:05:43;76161.09;;;-142.53;100.00
4133;BME280;2080;51.038;7.008;2023-04-07T08:08:13;76133.88;;;-142.53;100.00
4133;BME280;2080;51.038;7.008;2023-04-07T08:10:41;76128.06;;;-142.53;100.00
4133;BME280;2080;51.038;7.008;2023-04-07T08:13:06;76126.13;;;-142.53;100.00
4133;BME280;2080;51.038;7.008;2023-04-07T08:15:35;76114.47;;;-142.53;100.00
4133;BME280;2080;51.038;7.008;2023-04-07T08:18:00;76131.94;;;-142.53;100.00
4133;BME280;2080;51.038;7.008;2023-04-07T08:20:29;76126.13;;;-142.53;100.00
4133;BME280;2080;51.038;7.008;2023-04-07T08:22:55;76126.13;;;-142.53;100.00
4133;BME280;2080;51.038;7.008;2023-04-07T08:25:21;76106.69;;;-142.53;100.00
4133;BME280;2080;51.038;7.008;2023-04-07T08:27:46;76091.16;;;-142.53;100.00
4133;BME280;2080;51.038;7.008;2023-04-07T08:30:12;76067.84;;;-142.53;100.00
4133;BME280;2080;51.038;7.008;2023-04-07T08:32:40;76116.41;;;-142.53;100.00
4133;BME280;2080;51.038;7.008;2023-04-07T08:35:08;76075.63;;;-142.53;100.00
4133;BME280;2080;51.038;7.008;2023-04-07T08:37:34;76079.50;;;-142.53;100.00
4133;BME280;2080;51.038;7.008;2023-04-07T08:40:01;76056.19;;;-142.53;100.00
4133;BME280;2080;51.038;7.008;2023-04-07T08:42:29;76063.97;;;-142.53;100.00
4133;BME280;2080;51.038;7.008;2023-04-07T08:45:05;76044.56;;;-142.53;100.00
4133;BME280;2080;51.038;7.008;2023-04-07T08:47:34;76063.97;;;-142.53;100.00
4133;BME280;2080;51.038;7.008;2023-04-07T08:50:08;76060.09;;;-142.53;100.00
4133;BME280;2080;51.038;7.008;2023-04-07T08:55:02;76075.63;;;-142.53;100.00
4133;BME280;2080;51.038;7.008;2023-04-07T08:57:31;76098.94;;;-142.53;100.00
4133;BME280;2080;51.038;7.008;2023-04-07T08:59:58;76048.44;;;-142.53;100.00
4133;BME280;2080;51.038;7.008;2023-04-07T09:02:31;76032.91;;;-142.53;100.00
4133;BME280;2080;51.038;7.008;2023-04-07T09:04:57;76036.78;;;-142.53;100.00
4133;BME280;2080;51.038;7.008;2023-04-07T09:07:23;76056.19;;;-142.53;100.00
4133;BME280;2080;51.038;7.008;2023-04-07T09:09:48;76036.78;;;-142.53;100.00
4133;BME280;2080;51.038;7.008;2023-04-07T09:12:16;76025.13;;;-142.53;100.00
4133;BME280;2080;51.038;7.008;2023-04-07T09:14:42;75990.16;;;-142.53;100.00
4133;BME280;2080;51.038;7.008;2023-04-07T09:17:07;75997.94;;;-142.53;100.00
4133;BME280;2080;51.038;7.008;2023-04-07T09:19:33;75990.16;;;-142.53;100.00
4133;BME280;2080;51.038;7.008;2023-04-07T09:22:00;75966.88;;;-142.53;100.00
4133;BME280;2080;51.038;7.008;2023-04-07T09:24:27;75920.25;;;-142.53;100.00
4133;BME280;2080;51.038;7.008;2023-04-07T09:27:17;75966.88;;;-142.53;100.00
4133;BME280;2080;51.038;7.008;2023-04-07T09:29:44;75984.34;;;-142.53;100.00
4133;BME280;2080;51.038;7.008;2023-04-07T09:32:10;75984.34;;;-142.53;100.00
4133;BME280;2080;51.038;7.008;2023-04-07T09:34:39;75974.63;;;-142.53;100.00
4133;BME280;2080;51.038;7.008;2023-04-07T09:37:06;75970.75;;;-142.53;100.00
4133;BME280;2080;51.038;7.008;2023-04-07T09:39:48;76013.47;;;-142.53;100.00
4133;BME280;2080;51.038;7.008;2023-04-07T09:42:14;75978.50;;;-142.53;100.00
4133;BME280;2080;51.038;7.008;2023-04-07T09:44:42;76025.13;;;-142.53;100.00
4133;BME280;2080;51.038;7.008;2023-04-07T09:47:08;76013.47;;;-142.53;100.00
4133;BME280;2080;51.038;7.008;2023-04-07T09:49:47;75988.22;;;-142.53;100.00
4133;BME280;2080;51.038;7.008;2023-04-07T09:52:13;75984.34;;;-142.53;100.00
4133;BME280;2080;51.038;7.008;2023-04-07T09:54:39;76050.38;;;-142.53;100.00
4133;BME280;2080;51.038;7.008;2023-04-07T09:57:07;76017.34;;;-142.53;100.00
4133;BME280;2080;51.038;7.008;2023-04-07T09:59:37;76013.47;;;-142.53;100.00
4133;BME280;2080;51.038;7.008;2023-04-07T10:02:04;75978.50;;;-142.53;100.00
4133;BME280;2080;51.038;7.008;2023-04-07T10:04:30;75974.63;;;-142.53;100.00
4133;BME280;2080;51.038;7.008;2023-04-07T10:06:56;75994.06;;;-142.53;100.00
4133;BME280;2080;51.038;7.008;2023-04-07T10:09:26;76015.41;;;-142.53;100.00
4133;BME280;2080;51.038;7.008;2023-04-07T10:11:55;76001.81;;;-142.53;100.00
4133;BME280;2080;51.038;7.008;2023-04-07T10:14:26;75990.16;;;-142.53;100.00
4133;BME280;2080;51.038;7.008;2023-04-07T10:16:52;75957.16;;;-142.53;100.00
4133;BME280;2080;51.038;7.008;2023-04-07T10:19:18;75966.88;;;-142.53;100.00
4133;BME280;2080;51.038;7.008;2023-04-07T10:21:50;75978.50;;;-142.53;100.00
4133;BME280;2080;51.038;7.008;2023-04-07T10:27:00;76040.66;;;-142.53;100.00
4133;BME280;2080;51.038;7.008;2023-04-07T10:29:31;76056.19;;;-142.53;100.00
4133;BME280;2080;51.038;7.008;2023-04-07T10:31:59;76048.44;;;-142.53;100.00
4133;BME280;2080;51.038;7.008;2023-04-07T10:34:54;76036.78;;;-142.53;100.00
4133;BME280;2080;51.038;7.008;2023-04-07T10:37:23;76085.34;;;-142.53;100.00
4133;BME280;2080;51.038;7.008;2023-04-07T10:42:44;76013.47;;;-142.53;100.00
4133;BME280;2080;51.038;7.008;2023-04-07T10:45:11;75990.16;;;-142.53;100.00
4133;BME280;2080;51.038;7.008;2023-04-07T10:50:27;75947.44;;;-142.53;100.00
4133;BME280;2080;51.038;7.008;2023-04-07T10:53:14;76003.75;;;-142.53;100.00
4133;BME280;2080;51.038;7.008;2023-04-07T10:55:40;75984.34;;;-142.53;100.00
4133;BME280;2080;51.038;7.008;2023-04-07T10:58:24;76021.25;;;-142.53;100.00
4133;BME280;2080;51.038;7.008;2023-04-07T11:03:32;76032.91;;;-142.53;100.00
4133;BME280;2080;51.038;7.008;2023-04-07T11:06:10;76021.25;;;-142.53;100.00
4133;BME280;2080;51.038;7.008;2023-04-07T11:11:03;75978.50;;;-142.53;99.62
4133;BME280;2080;51.038;7.008;2023-04-07T11:13:42;75966.88;;;-142.53;99.71
4133;BME280;2080;51.038;7.008;2023-04-07T11:16:09;75970.75;;;-142.53;97.66
4133;BME280;2080;51.038;7.008;2023-04-07T11:18:35;75908.59;;;-142.53;97.36
4133;BME280;2080;51.038;7.008;2023-04-07T11:21:02;75854.22;;;-142.53;96.05
4133;BME280;2080;51.038;7.008;2023-04-07T11:23:37;75811.50;;;-142.53;94.25
4133;BME280;2080;51.038;7.008;2023-04-07T11:26:05;75834.81;;;-142.53;91.58
4133;BME280;2080;51.038;7.008;2023-04-07T11:28:31;75871.69;;;-142.53;92.37
4133;BME280;2080;51.038;7.008;2023-04-07T11:30:59;75848.41;;;-142.53;92.81
4133;BME280;2080;51.038;7.008;2023-04-07T11:33:28;75877.53;;;-142.53;92.13
4133;BME280;2080;51.038;7.008;2023-04-07T11:36:01;75943.56;;;-142.53;91.21
4133;BME280;2080;51.038;7.008;2023-04-07T11:38:35;75951.31;;;-142.53;92.29
4133;BME280;2080;51.038;7.008;2023-04-07T11:41:09;75910.53;;;-142.53;91.20
4133;BME280;2080;51.038;7.008;2023-04-07T11:43:35;75916.38;;;-142.53;91.65
4133;BME280;2080;51.038;7.008;2023-04-07T11:48:32;75939.69;;;-142.53;92.70
4133;BME280;2080;51.038;7.008;2023-04-07T11:50:59;75974.63;;;-142.53;93.13
4133;BME280;2080;51.038;7.008;2023-04-07T11:53:29;76005.72;;;-142.53;95.77
4133;BME280;2080;51.038;7.008;2023-04-07T11:56:07;76058.16;;;-142.53;98.43
4133;BME280;2080;51.038;7.008;2023-04-07T11:58:35;76048.44;;;-142.53;98.74
4133;BME280;2080;51.038;7.008;2023-04-07T12:01:03;76075.63;;;-142.53;99.40
4133;BME280;2080;51.038;7.008;2023-04-07T12:03:32;76040.66;;;-142.53;99.18
4133;BME280;2080;51.038;7.008;2023-04-07T12:05:59;76019.31;;;-142.53;97.86
4133;BME280;2080;51.038;7.008;2023-04-07T12:08:41;75939.69;;;-142.53;97.04
4133;BME280;2080;51.038;7.008;2023-04-07T12:11:07;75893.06;;;-142.53;92.59
4133;BME280;2080;51.038;7.008;2023-04-07T12:13:36;75867.81;;;-142.53;91.83
4133;BME280;2080;51.038;7.008;2023-04-07T12:16:05;75819.28;;;-142.53;87.93
4133;BME280;2080;51.038;7.008;2023-04-07T12:18:30;75762.94;;;-142.53;88.07
4133;BME280;2080;51.038;7.008;2023-04-07T12:20:56;75720.22;;;-142.53;87.65
4133;BME280;2080;51.038;7.008;2023-04-07T12:23:23;75663.91;;;-142.53;86.27
4133;BME280;2080;51.038;7.008;2023-04-07T12:25:48;75636.72;;;-142.53;84.03
4133;BME280;2080;51.038;7.008;2023-04-07T12:28:13;75636.72;;;-142.53;80.84
4133;BME280;2080;51.038;7.008;2023-04-07T12:30:39;75648.38;;;-142.53;80.68
4133;BME280;2080;51.038;7.008;2023-04-07T12:33:04;75636.72;;;-142.53;82.14
4133;BME280;2080;51.038;7.008;2023-04-07T12:35:32;75708.56;;;-142.53;80.50
4133;BME280;2080;51.038;7.008;2023-04-07T12:37:58;75825.09;;;-142.53;83.78
4133;BME280;2080;51.038;7.008;2023-04-07T12:40:23;75850.34;;;-142.53;86.12
4133;BME280;2080;51.038;7.008;2023-04-07T12:42:49;75856.16;;;-142.53;89.75
4133;BME280;2080;51.038;7.008;2023-04-07T12:45:17;75844.50;;;-142.53;90.52
4133;BME280;2080;51.038;7.008;2023-04-07T12:47:47;75830.91;;;-142.53;87.44
4133;BME280;2080;51.038;7.008;2023-04-07T12:50:18;75821.22;;;-142.53;86.02
4133;BME280;2080;51.038;7.008;2023-04-07T12:52:43;75761.00;;;-142.53;84.90
4133;BME280;2080;51.038;7.008;2023-04-07T12:55:08;75827.03;;;-142.53;85.29
4133;BME280;2080;51.038;7.008;2023-04-07T12:57:36;75805.69;;;-142.53;82.92
4133;BME280;2080;51.038;7.008;2023-04-07T13:00:02;75745.47;;;-142.53;84.57
4133;BME280;2080;51.038;7.008;2023-04-07T13:02:27;75718.28;;;-142.53;82.12
4133;BME280;2080;51.038;7.008;2023-04-07T13:04:55;75745.47;;;-142.53;80.83
4133;BME280;2080;51.038;7.008;2023-04-07T13:07:20;75764.91;;;-142.53;83.91
4133;BME280;2080;51.038;7.008;2023-04-07T13:09:48;75801.78;;;-142.53;83.00
4133;BME280;2080;51.038;7.008;2023-04-07T13:12:13;75850.34;;;-142.53;86.21
4133;BME280;2080;51.038;7.008;2023-04-07T13:14:40;75823.16;;;-142.53;86.59
4133;BME280;2080;51.038;7.008;2023-04-07T13:17:07;75832.88;;;-142.53;84.90
4133;BME280;2080;51.038;7.008;2023-04-07T13:19:33;75842.56;;;-142.53;84.41
4133;BME280;2080;51.038;7.008;2023-04-07T13:21:58;75873.66;;;-142.53;86.15